sensor_id;sensor_type;location;lat;lon;timestamp;P1;durP1;ratioP1;P2;durP2;ratioP2
21564;SDS011;10943;48.738;9.320;2022-12-10T00:01:51;43.60;;;26.77;;
21564;SDS011;10943;48.738;9.320;2022-12-10T00:04:19;42.97;;;26.15;;
21564;SDS011;10943;48.738;9.320;2022-12-10T00:06:48;42.45;;;25.13;;
21564;SDS011;10943;48.738;9.320;2022-12-10T00:09:17;41.42;;;25.08;;
21564;SDS011;10943;48.738;9.320;2022-12-10T00:11:48;43.17;;;25.70;;
21564;SDS011;10943;48.738;9.320;2022-12-10T00:14:16;44.58;;;26.75;;
21564;SDS011;10943;48.738;9.320;2022-12-10T00:16:44;40.22;;;25.98;;
21564;SDS011;10943;48.738;9.320;2022-12-10T00:19:12;40.05;;;24.52;;
21564;SDS011;10943;48.738;9.320;2022-12-10T00:21:39;45.22;;;26.92;;
21564;SDS011;10943;48.738;9.320;2022-12-10T00:24:07;43.85;;;26.17;;
21564;SDS011;10943;48.738;9.320;2022-12-10T00:26:38;40.95;;;25.58;;
21564;SDS011;10943;48.738;9.320;2022-12-10T00:29:07;45.60;;;26.77;;
21564;SDS011;10943;48.738;9.320;2022-12-10T00:31:39;45.25;;;26.08;;
21564;SDS011;10943;48.738;9.320;2022-12-10T00:34:08;40.25;;;25.00;;
21564;SDS011;10943;48.738;9.320;2022-12-10T00:36:39;41.28;;;25.02;;
21564;SDS011;10943;48.738;9.320;2022-12-10T00:39:16;42.25;;;25.33;;
21564;SDS011;10943;48.738;9.320;2022-12-10T00:41:47;39.78;;;25.75;;
21564;SDS011;10943;48.738;9.320;2022-12-10T00:44:15;38.50;;;24.13;;
21564;SDS011;10943;48.738;9.320;2022-12-10T00:46:43;40.70;;;24.92;;
21564;SDS011;10943;48.738;9.320;2022-12-10T00:49:11;43.10;;;25.98;;
21564;SDS011;10943;48.738;9.320;2022-12-10T00:51:39;41.05;;;26.10;;
21564;SDS011;10943;48.738;9.320;2022-12-10T00:54:07;41.78;;;25.30;;
21564;SDS011;10943;48.738;9.320;2022-12-10T00:56:35;41.58;;;25.55;;
21564;SDS011;10943;48.738;9.320;2022-12-10T00:59:03;39.78;;;24.83;;
21564;SDS011;10943;48.738;9.320;2022-12-10T01:01:35;40.50;;;25.48;;
21564;SDS011;10943;48.738;9.320;2022-12-10T01:04:11;39.38;;;24.48;;
21564;SDS011;10943;48.738;9.320;2022-12-10T01:06:44;39.60;;;24.42;;
21564;SDS011;10943;48.738;9.320;2022-12-10T01:09:23;42.20;;;24.75;;
21564;SDS011;10943;48.738;9.320;2022-12-10T01:11:55;39.70;;;24.35;;
21564;SDS011;10943;48.738;9.320;2022-12-10T01:14:32;37.45;;;24.45;;
21564;SDS011;10943;48.738;9.320;2022-12-10T01:17:01;39.55;;;23.35;;
21564;SDS011;10943;48.738;9.320;2022-12-10T01:19:32;37.22;;;23.70;;
21564;SDS011;10943;48.738;9.320;2022-12-10T01:22:01;37.95;;;22.17;;
21564;SDS011;10943;48.738;9.320;2022-12-10T01:24:29;41.22;;;24.05;;
21564;SDS011;10943;48.738;9.320;2022-12-10T01:26:57;35.70;;;23.00;;
21564;SDS011;10943;48.738;9.320;2022-12-10T01:29:26;36.50;;;23.45;;
21564;SDS011;10943;48.738;9.320;2022-12-10T01:31:55;39.00;;;23.95;;
21564;SDS011;10943;48.738;9.320;2022-12-10T01:34:27;38.20;;;24.48;;
21564;SDS011;10943;48.738;9.320;2022-12-10T01:36:55;41.15;;;25.35;;
21564;SDS011;10943;48.738;9.320;2022-12-10T01:39:23;43.47;;;26.25;;
21564;SDS011;10943;48.738;9.320;2022-12-10T01:41:53;40.92;;;25.30;;
21564;SDS011;10943;48.738;9.320;2022-12-10T01:46:55;43.28;;;27.13;;
21564;SDS011;10943;48.738;9.320;2022-12-10T01:49:37;42.30;;;25.25;;
21564;SDS011;10943;48.738;9.320;2022-12-10T01:52:08;41.25;;;24.40;;
21564;SDS011;10943;48.738;9.320;2022-12-10T01:54:40;42.33;;;26.67;;
21564;SDS011;10943;48.738;9.320;2022-12-10T01:59:52;40.10;;;24.33;;
21564;SDS011;10943;48.738;9.320;2022-12-10T02:02:42;40.90;;;25.45;;
21564;SDS011;10943;48.738;9.320;2022-12-10T02:05:28;40.22;;;25.35;;
21564;SDS011;10943;48.738;9.320;2022-12-10T02:08:17;39.47;;;24.85;;
21564;SDS011;10943;48.738;9.320;2022-12-10T02:13:59;38.30;;;23.98;;
21564;SDS011;10943;48.738;9.320;2022-12-10T02:16:40;37.78;;;24.23;;
21564;SDS011;10943;48.738;9.320;2022-12-10T02:20:26;36.35;;;23.40;;
21564;SDS011;10943;48.738;9.320;2022-12-10T02:23:09;37.88;;;22.63;;
21564;SDS011;10943;48.738;9.320;2022-12-10T02:29:03;38.05;;;23.10;;
21564;SDS011;10943;48.738;9.320;2022-12-10T02:31:52;39.05;;;23.60;;
21564;SDS011;10943;48.738;9.320;2022-12-10T02:34:32;35.72;;;22.27;;
21564;SDS011;10943;48.738;9.320;2022-12-10T02:37:12;37.45;;;22.63;;
21564;SDS011;10943;48.738;9.320;2022-12-10T02:39:54;37.85;;;22.98;;
21564;SDS011;10943;48.738;9.320;2022-12-10T02:42:32;38.17;;;23.73;;
21564;SDS011;10943;48.738;9.320;2022-12-10T02:45:06;34.25;;;21.83;;
21564;SDS011;10943;48.738;9.320;2022-12-10T02:47:36;35.28;;;22.17;;
21564;SDS011;10943;48.738;9.320;2022-12-10T02:50:07;37.33;;;22.15;;
21564;SDS011;10943;48.738;9.320;2022-12-10T02:52:41;37.20;;;23.30;;
21564;SDS011;10943;48.738;9.320;2022-12-10T02:55:12;33.40;;;22.38;;
21564;SDS011;10943;48.738;9.320;2022-12-10T03:00:32;35.17;;;22.27;;
21564;SDS011;10943;48.738;9.320;2022-12-10T03:03:42;33.38;;;20.92;;
21564;SDS011;10943;48.738;9.320;2022-12-10T03:06:43;34.33;;;21.73;;
21564;SDS011;10943;48.738;9.320;2022-12-10T03:09:40;32.88;;;21.20;;
21564;SDS011;10943;48.738;9.320;2022-12-10T03:12:36;37.95;;;21.98;;
21564;SDS011;10943;48.738;9.320;2022-12-10T03:15:14;33.17;;;21.65;;
21564;SDS011;10943;48.738;9.320;2022-12-10T03:17:50;35.55;;;22.50;;
21564;SDS011;10943;48.738;9.320;2022-12-10T03:20:20;32.33;;;20.65;;
21564;SDS011;10943;48.738;9.320;2022-12-10T03:22:52;32.20;;;20.08;;
21564;SDS011;10943;48.738;9.320;2022-12-10T03:25:23;33.88;;;22.25;;
21564;SDS011;10943;48.738;9.320;2022-12-10T03:27:55;33.72;;;22.02;;
21564;SDS011;10943;48.738;9.320;2022-12-10T03:30:28;33.70;;;21.35;;
21564;SDS011;10943;48.738;9.320;2022-12-10T03:32:59;33.25;;;21.00;;
21564;SDS011;10943;48.738;9.320;2022-12-10T03:35:29;32.75;;;21.17;;
21564;SDS011;10943;48.738;9.320;2022-12-10T03:37:57;34.10;;;22.15;;
21564;SDS011;10943;48.738;9.320;2022-12-10T03:40:25;31.67;;;20.52;;
21564;SDS011;10943;48.738;9.320;2022-12-10T03:42:53;31.45;;;20.60;;
21564;SDS011;10943;48.738;9.320;2022-12-10T03:45:20;35.90;;;21.95;;
21564;SDS011;10943;48.738;9.320;2022-12-10T03:47:48;33.80;;;20.85;;
21564;SDS011;10943;48.738;9.320;2022-12-10T03:50:16;34.50;;;20.88;;
21564;SDS011;10943;48.738;9.320;2022-12-10T03:52:44;30.88;;;20.10;;
21564;SDS011;10943;48.738;9.320;2022-12-10T03:55:11;32.83;;;21.10;;
21564;SDS011;10943;48.738;9.320;2022-12-10T03:57:39;34.33;;;20.92;;
21564;SDS011;10943;48.738;9.320;2022-12-10T04:00:07;32.58;;;21.45;;
21564;SDS011;10943;48.738;9.320;2022-12-10T04:02:45;29.45;;;20.15;;
21564;SDS011;10943;48.738;9.320;2022-12-10T04:05:12;36.05;;;21.30;;
21564;SDS011;10943;48.738;9.320;2022-12-10T04:07:40;31.10;;;20.58;;
21564;SDS011;10943;48.738;9.320;2022-12-10T04:10:07;31.45;;;20.00;;
21564;SDS011;10943;48.738;9.320;2022-12-10T04:12:36;31.77;;;19.85;;
21564;SDS011;10943;48.738;9.320;2022-12-10T04:15:03;31.80;;;20.85;;
21564;SDS011;10943;48.738;9.320;2022-12-10T04:17:51;29.55;;;19.33;;
21564;SDS011;10943;48.738;9.320;2022-12-10T04:20:19;33.33;;;20.85;;
21564;SDS011;10943;48.738;9.320;2022-12-10T04:23:05;30.00;;;19.75;;
21564;SDS011;10943;48.738;9.320;2022-12-10T04:25:53;30.40;;;19.40;;
21564;SDS011;10943;48.738;9.320;2022-12-10T04:28:39;29.75;;;20.35;;
21564;SDS011;10943;48.738;9.320;2022-12-10T04:31:06;32.17;;;22.08;;
21564;SDS011;10943;48.738;9.320;2022-12-10T04:33:34;33.47;;;21.38;;
21564;SDS011;10943;48.738;9.320;2022-12-10T04:36:01;35.45;;;22.38;;
21564;SDS011;10943;48.738;9.320;2022-12-10T04:38:29;34.25;;;21.95;;
21564;SDS011;10943;48.738;9.320;2022-12-10T04:40:57;32.95;;;20.98;;
21564;SDS011;10943;48.738;9.320;2022-12-10T04:43:27;34.67;;;21.92;;
21564;SDS011;10943;48.738;9.320;2022-12-10T04:45:55;32.05;;;20.75;;
21564;SDS011;10943;48.738;9.320;2022-12-10T04:48:23;33.38;;;21.27;;
21564;SDS011;10943;48.738;9.320;2022-12-10T04:50:50;34.17;;;22.48;;
21564;SDS011;10943;48.738;9.320;2022-12-10T04:53:18;33.25;;;21.88;;
21564;SDS011;10943;48.738;9.320;2022-12-10T04:55:45;35.58;;;20.63;;
21564;SDS011;10943;48.738;9.320;2022-12-10T04:58:13;31.95;;;20.73;;
21564;SDS011;10943;48.738;9.320;2022-12-10T05:00:40;30.60;;;20.23;;
21564;SDS011;10943;48.738;9.320;2022-12-10T05:03:08;31.13;;;20.00;;
21564;SDS011;10943;48.738;9.320;2022-12-10T05:05:35;31.92;;;21.02;;
21564;SDS011;10943;48.738;9.320;2022-12-10T05:08:03;30.63;;;21.00;;
21564;SDS011;10943;48.738;9.320;2022-12-10T05:10:30;32.22;;;19.95;;
21564;SDS011;10943;48.738;9.320;2022-12-10T05:13:01;31.55;;;21.08;;
21564;SDS011;10943;48.738;9.320;2022-12-10T05:15:28;32.03;;;20.67;;
21564;SDS011;10943;48.738;9.320;2022-12-10T05:17:56;30.67;;;19.63;;
21564;SDS011;10943;48.738;9.320;2022-12-10T05:20:24;32.72;;;21.38;;
21564;SDS011;10943;48.738;9.320;2022-12-10T05:22:51;32.10;;;20.50;;
21564;SDS011;10943;48.738;9.320;2022-12-10T05:25:37;33.65;;;20.95;;
21564;SDS011;10943;48.738;9.320;2022-12-10T05:28:20;30.40;;;20.08;;
21564;SDS011;10943;48.738;9.320;2022-12-10T05:30:49;30.42;;;20.10;;
21564;SDS011;10943;48.738;9.320;2022-12-10T05:33:17;31.95;;;19.58;;
21564;SDS011;10943;48.738;9.320;2022-12-10T05:35:55;32.50;;;21.25;;
21564;SDS011;10943;48.738;9.320;2022-12-10T05:38:28;30.75;;;21.05;;
21564;SDS011;10943;48.738;9.320;2022-12-10T05:41:05;31.27;;;20.95;;
21564;SDS011;10943;48.738;9.320;2022-12-10T05:43:39;33.28;;;20.58;;
21564;SDS011;10943;48.738;9.320;2022-12-10T05:46:10;34.33;;;21.92;;
21564;SDS011;10943;48.738;9.320;2022-12-10T05:48:51;35.28;;;22.33;;
21564;SDS011;10943;48.738;9.320;2022-12-10T05:51:21;33.70;;;21.02;;
21564;SDS011;10943;48.738;9.320;2022-12-10T05:53:54;32.28;;;21.15;;
21564;SDS011;10943;48.738;9.320;2022-12-10T05:56:23;33.13;;;21.02;;
21564;SDS011;10943;48.738;9.320;2022-12-10T05:58:53;34.25;;;21.35;;
21564;SDS011;10943;48.738;9.320;2022-12-10T06:01:29;35.38;;;21.52;;
21564;SDS011;10943;48.738;9.320;2022-12-10T06:04:02;34.42;;;21.38;;
21564;SDS011;10943;48.738;9.320;2022-12-10T06:06:33;33.22;;;20.80;;
21564;SDS011;10943;48.738;9.320;2022-12-10T06:09:04;32.78;;;21.17;;
21564;SDS011;10943;48.738;9.320;2022-12-10T06:11:39;32.00;;;20.52;;
21564;SDS011;10943;48.738;9.320;2022-12-10T06:14:08;35.33;;;22.27;;
21564;SDS011;10943;48.738;9.320;2022-12-10T06:16:38;33.25;;;21.17;;
21564;SDS011;10943;48.738;9.320;2022-12-10T06:19:07;32.63;;;21.55;;
21564;SDS011;10943;48.738;9.320;2022-12-10T06:21:34;30.83;;;21.42;;
21564;SDS011;10943;48.738;9.320;2022-12-10T06:24:02;31.77;;;22.23;;
21564;SDS011;10943;48.738;9.320;2022-12-10T06:26:30;32.10;;;20.95;;
21564;SDS011;10943;48.738;9.320;2022-12-10T06:28:58;31.73;;;20.98;;
21564;SDS011;10943;48.738;9.320;2022-12-10T06:31:26;32.85;;;21.67;;
21564;SDS011;10943;48.738;9.320;2022-12-10T06:33:54;31.65;;;20.08;;
21564;SDS011;10943;48.738;9.320;2022-12-10T06:36:22;32.35;;;22.13;;
21564;SDS011;10943;48.738;9.320;2022-12-10T06:38:49;28.42;;;20.15;;
21564;SDS011;10943;48.738;9.320;2022-12-10T06:41:18;31.42;;;20.77;;
21564;SDS011;10943;48.738;9.320;2022-12-10T06:43:47;33.08;;;21.55;;
21564;SDS011;10943;48.738;9.320;2022-12-10T06:46:17;31.38;;;20.17;;
21564;SDS011;10943;48.738;9.320;2022-12-10T06:48:47;31.05;;;20.48;;
21564;SDS011;10943;48.738;9.320;2022-12-10T06:51:15;33.63;;;20.77;;
21564;SDS011;10943;48.738;9.320;2022-12-10T06:53:45;29.35;;;20.30;;
21564;SDS011;10943;48.738;9.320;2022-12-10T06:56:14;29.42;;;19.38;;
21564;SDS011;10943;48.738;9.320;2022-12-10T06:58:46;34.97;;;22.48;;
21564;SDS011;10943;48.738;9.320;2022-12-10T07:01:16;30.67;;;20.15;;
21564;SDS011;10943;48.738;9.320;2022-12-10T07:04:29;32.35;;;20.88;;
21564;SDS011;10943;48.738;9.320;2022-12-10T07:06:57;33.42;;;21.10;;
21564;SDS011;10943;48.738;9.320;2022-12-10T07:09:33;33.10;;;21.58;;
21564;SDS011;10943;48.738;9.320;2022-12-10T07:12:02;30.58;;;20.85;;
21564;SDS011;10943;48.738;9.320;2022-12-10T07:14:31;31.00;;;20.33;;
21564;SDS011;10943;48.738;9.320;2022-12-10T07:16:58;32.70;;;21.42;;
21564;SDS011;10943;48.738;9.320;2022-12-10T07:19:29;29.13;;;20.17;;
21564;SDS011;10943;48.738;9.320;2022-12-10T07:21:56;33.05;;;20.95;;
21564;SDS011;10943;48.738;9.320;2022-12-10T07:24:23;30.30;;;19.65;;
21564;SDS011;10943;48.738;9.320;2022-12-10T07:26:51;28.85;;;19.48;;
21564;SDS011;10943;48.738;9.320;2022-12-10T07:29:19;31.95;;;21.08;;
21564;SDS011;10943;48.738;9.320;2022-12-10T07:31:48;31.27;;;21.00;;
21564;SDS011;10943;48.738;9.320;2022-12-10T07:34:16;30.92;;;20.60;;
21564;SDS011;10943;48.738;9.320;2022-12-10T07:36:44;32.40;;;20.98;;
21564;SDS011;10943;48.738;9.320;2022-12-10T07:39:12;30.05;;;19.83;;
21564;SDS011;10943;48.738;9.320;2022-12-10T07:41:46;31.73;;;21.40;;
21564;SDS011;10943;48.738;9.320;2022-12-10T07:44:23;34.10;;;21.08;;
21564;SDS011;10943;48.738;9.320;2022-12-10T07:46:53;31.88;;;20.02;;
21564;SDS011;10943;48.738;9.320;2022-12-10T07:49:21;31.48;;;20.25;;
21564;SDS011;10943;48.738;9.320;2022-12-10T07:51:49;30.05;;;19.42;;
21564;SDS011;10943;48.738;9.320;2022-12-10T07:54:18;29.98;;;20.25;;
21564;SDS011;10943;48.738;9.320;2022-12-10T07:56:46;32.17;;;20.95;;
21564;SDS011;10943;48.738;9.320;2022-12-10T07:59:15;30.17;;;19.50;;
21564;SDS011;10943;48.738;9.320;2022-12-10T08:01:43;28.33;;;19.05;;
21564;SDS011;10943;48.738;9.320;2022-12-10T08:04:11;29.67;;;19.95;;
21564;SDS011;10943;48.738;9.320;2022-12-10T08:06:39;29.77;;;19.77;;
21564;SDS011;10943;48.738;9.320;2022-12-10T08:09:06;29.60;;;19.65;;
21564;SDS011;10943;48.738;9.320;2022-12-10T08:11:34;27.88;;;20.45;;
21564;SDS011;10943;48.738;9.320;2022-12-10T08:14:04;29.15;;;20.10;;
21564;SDS011;10943;48.738;9.320;2022-12-10T08:16:32;29.17;;;18.73;;
21564;SDS011;10943;48.738;9.320;2022-12-10T08:19:00;28.92;;;19.73;;
21564;SDS011;10943;48.738;9.320;2022-12-10T08:21:30;29.60;;;19.52;;
21564;SDS011;10943;48.738;9.320;2022-12-10T08:23:59;31.60;;;19.70;;
21564;SDS011;10943;48.738;9.320;2022-12-10T08:26:29;26.50;;;18.75;;
21564;SDS011;10943;48.738;9.320;2022-12-10T08:29:00;28.90;;;20.05;;
21564;SDS011;10943;48.738;9.320;2022-12-10T08:31:29;28.80;;;19.20;;
21564;SDS011;10943;48.738;9.320;2022-12-10T08:34:02;28.52;;;18.80;;
21564;SDS011;10943;48.738;9.320;2022-12-10T08:36:32;31.10;;;19.90;;
21564;SDS011;10943;48.738;9.320;2022-12-10T08:38:59;32.17;;;19.73;;
21564;SDS011;10943;48.738;9.320;2022-12-10T08:41:28;28.95;;;19.15;;
21564;SDS011;10943;48.738;9.320;2022-12-10T08:43:56;27.52;;;19.77;;
21564;SDS011;10943;48.738;9.320;2022-12-10T08:46:24;29.38;;;19.83;;
21564;SDS011;10943;48.738;9.320;2022-12-10T08:48:53;29.30;;;20.30;;
21564;SDS011;10943;48.738;9.320;2022-12-10T08:51:22;26.58;;;18.40;;
21564;SDS011;10943;48.738;9.320;2022-12-10T08:53:50;25.95;;;18.27;;
21564;SDS011;10943;48.738;9.320;2022-12-10T08:56:23;30.33;;;20.02;;
21564;SDS011;10943;48.738;9.320;2022-12-10T08:58:54;25.95;;;18.38;;
21564;SDS011;10943;48.738;9.320;2022-12-10T09:01:22;27.65;;;18.38;;
21564;SDS011;10943;48.738;9.320;2022-12-10T09:03:51;28.70;;;19.85;;
21564;SDS011;10943;48.738;9.320;2022-12-10T09:06:20;27.40;;;19.15;;
21564;SDS011;10943;48.738;9.320;2022-12-10T09:08:51;26.35;;;18.83;;
21564;SDS011;10943;48.738;9.320;2022-12-10T09:11:22;27.58;;;19.50;;
21564;SDS011;10943;48.738;9.320;2022-12-10T09:13:54;27.13;;;18.85;;
21564;SDS011;10943;48.738;9.320;2022-12-10T09:16:33;25.58;;;18.83;;
21564;SDS011;10943;48.738;9.320;2022-12-10T09:19:05;28.05;;;19.15;;
21564;SDS011;10943;48.738;9.320;2022-12-10T09:21:33;25.50;;;17.95;;
21564;SDS011;10943;48.738;9.320;2022-12-10T09:24:02;28.92;;;19.60;;
21564;SDS011;10943;48.738;9.320;2022-12-10T09:26:30;28.00;;;18.80;;
21564;SDS011;10943;48.738;9.320;2022-12-10T09:28:58;27.88;;;19.42;;
21564;SDS011;10943;48.738;9.320;2022-12-10T09:31:26;25.98;;;18.02;;
21564;SDS011;10943;48.738;9.320;2022-12-10T09:33:56;27.60;;;18.48;;
21564;SDS011;10943;48.738;9.320;2022-12-10T09:36:23;27.50;;;18.52;;
21564;SDS011;10943;48.738;9.320;2022-12-10T09:38:58;26.48;;;18.10;;
21564;SDS011;10943;48.738;9.320;2022-12-10T09:45:02;25.33;;;17.48;;
21564;SDS011;10943;48.738;9.320;2022-12-10T09:50:34;24.67;;;17.85;;
21564;SDS011;10943;48.738;9.320;2022-12-10T09:53:20;26.73;;;18.75;;
21564;SDS011;10943;48.738;9.320;2022-12-10T09:55:51;28.38;;;18.90;;
21564;SDS011;10943;48.738;9.320;2022-12-10T09:58:20;26.13;;;18.23;;
21564;SDS011;10943;48.738;9.320;2022-12-10T10:01:00;27.80;;;18.42;;
21564;SDS011;10943;48.738;9.320;2022-12-10T10:03:33;25.33;;;17.80;;
21564;SDS011;10943;48.738;9.320;2022-12-10T10:06:11;25.17;;;17.77;;
21564;SDS011;10943;48.738;9.320;2022-12-10T10:08:46;26.70;;;18.30;;
21564;SDS011;10943;48.738;9.320;2022-12-10T10:11:20;26.77;;;18.08;;
21564;SDS011;10943;48.738;9.320;2022-12-10T10:17:03;24.90;;;17.77;;
21564;SDS011;10943;48.738;9.320;2022-12-10T10:19:56;26.13;;;18.23;;
21564;SDS011;10943;48.738;9.320;2022-12-10T10:22:24;27.85;;;19.15;;
21564;SDS011;10943;48.738;9.320;2022-12-10T10:24:53;28.45;;;19.98;;
21564;SDS011;10943;48.738;9.320;2022-12-10T10:27:28;27.02;;;19.38;;
21564;SDS011;10943;48.738;9.320;2022-12-10T10:30:00;27.38;;;19.35;;
21564;SDS011;10943;48.738;9.320;2022-12-10T10:35:06;27.48;;;19.27;;
21564;SDS011;10943;48.738;9.320;2022-12-10T10:38:07;29.35;;;20.05;;
21564;SDS011;10943;48.738;9.320;2022-12-10T10:40:49;32.03;;;20.58;;
21564;SDS011;10943;48.738;9.320;2022-12-10T10:43:27;28.77;;;20.00;;
21564;SDS011;10943;48.738;9.320;2022-12-10T10:46:17;29.27;;;20.48;;
21564;SDS011;10943;48.738;9.320;2022-12-10T10:48:49;28.65;;;20.90;;
21564;SDS011;10943;48.738;9.320;2022-12-10T10:51:21;28.17;;;20.38;;
21564;SDS011;10943;48.738;9.320;2022-12-10T10:53:54;28.48;;;19.73;;
21564;SDS011;10943;48.738;9.320;2022-12-10T11:01:56;30.27;;;20.95;;
21564;SDS011;10943;48.738;9.320;2022-12-10T11:04:54;28.40;;;20.25;;
21564;SDS011;10943;48.738;9.320;2022-12-10T11:12:56;25.70;;;19.38;;
21564;SDS011;10943;48.738;9.320;2022-12-10T11:18:39;25.98;;;19.27;;
21564;SDS011;10943;48.738;9.320;2022-12-10T11:21:21;29.55;;;19.73;;
21564;SDS011;10943;48.738;9.320;2022-12-10T11:23:52;29.38;;;20.27;;
21564;SDS011;10943;48.738;9.320;2022-12-10T11:41:00;29.38;;;19.20;;
21564;SDS011;10943;48.738;9.320;2022-12-10T11:50:43;25.80;;;18.85;;
21564;SDS011;10943;48.738;9.320;2022-12-10T11:57:06;25.88;;;18.63;;
21564;SDS011;10943;48.738;9.320;2022-12-10T12:02:49;24.23;;;17.25;;
21564;SDS011;10943;48.738;9.320;2022-12-10T12:09:23;28.40;;;19.15;;
21564;SDS011;10943;48.738;9.320;2022-12-10T12:16:01;26.50;;;18.05;;
21564;SDS011;10943;48.738;9.320;2022-12-10T12:19:00;28.67;;;18.75;;
21564;SDS011;10943;48.738;9.320;2022-12-10T12:21:32;28.05;;;19.65;;
21564;SDS011;10943;48.738;9.320;2022-12-10T12:26:50;25.58;;;17.77;;
21564;SDS011;10943;48.738;9.320;2022-12-10T12:29:51;26.38;;;18.42;;
21564;SDS011;10943;48.738;9.320;2022-12-10T12:32:48;24.98;;;18.27;;
21564;SDS011;10943;48.738;9.320;2022-12-10T12:35:41;23.52;;;17.33;;
21564;SDS011;10943;48.738;9.320;2022-12-10T12:39:21;24.70;;;18.35;;
21564;SDS011;10943;48.738;9.320;2022-12-10T12:44:18;26.10;;;16.88;;
21564;SDS011;10943;48.738;9.320;2022-12-10T12:53:22;25.75;;;17.92;;
21564;SDS011;10943;48.738;9.320;2022-12-10T12:56:04;25.77;;;18.17;;
21564;SDS011;10943;48.738;9.320;2022-12-10T12:59:00;27.30;;;19.20;;
21564;SDS011;10943;48.738;9.320;2022-12-10T13:05:32;23.73;;;16.52;;
21564;SDS011;10943;48.738;9.320;2022-12-10T13:13:39;26.08;;;17.20;;
21564;SDS011;10943;48.738;9.320;2022-12-10T13:24:19;25.63;;;17.25;;
21564;SDS011;10943;48.738;9.320;2022-12-10T13:33:02;25.35;;;16.33;;
21564;SDS011;10943;48.738;9.320;2022-12-10T13:35:51;23.25;;;16.40;;
21564;SDS011;10943;48.738;9.320;2022-12-10T13:38:38;25.40;;;17.20;;
21564;SDS011;10943;48.738;9.320;2022-12-10T13:41:42;22.15;;;15.98;;
21564;SDS011;10943;48.738;9.320;2022-12-10T13:47:54;24.33;;;16.45;;
21564;SDS011;10943;48.738;9.320;2022-12-10T13:51:06;23.80;;;16.15;;
21564;SDS011;10943;48.738;9.320;2022-12-10T14:00:20;23.73;;;16.23;;
21564;SDS011;10943;48.738;9.320;2022-12-10T14:06:26;27.77;;;17.23;;
21564;SDS011;10943;48.738;9.320;2022-12-10T14:09:38;24.10;;;17.23;;
21564;SDS011;10943;48.738;9.320;2022-12-10T14:12:20;22.80;;;17.10;;
21564;SDS011;10943;48.738;9.320;2022-12-10T14:14:59;24.50;;;17.60;;
21564;SDS011;10943;48.738;9.320;2022-12-10T14:17:50;25.77;;;17.65;;
21564;SDS011;10943;48.738;9.320;2022-12-10T14:20:29;25.65;;;17.90;;
21564;SDS011;10943;48.738;9.320;2022-12-10T14:23:05;27.42;;;17.92;;
21564;SDS011;10943;48.738;9.320;2022-12-10T14:26:18;27.15;;;18.02;;
21564;SDS011;10943;48.738;9.320;2022-12-10T14:29:08;26.27;;;17.67;;
21564;SDS011;10943;48.738;9.320;2022-12-10T14:31:54;28.48;;;18.38;;
21564;SDS011;10943;48.738;9.320;2022-12-10T14:34:24;26.52;;;18.23;;
21564;SDS011;10943;48.738;9.320;2022-12-10T14:36:55;26.63;;;18.63;;
21564;SDS011;10943;48.738;9.320;2022-12-10T14:39:29;28.38;;;19.70;;
21564;SDS011;10943;48.738;9.320;2022-12-10T14:42:03;27.58;;;19.83;;
21564;SDS011;10943;48.738;9.320;2022-12-10T14:44:34;29.08;;;19.17;;
21564;SDS011;10943;48.738;9.320;2022-12-10T14:47:11;29.85;;;20.15;;
21564;SDS011;10943;48.738;9.320;2022-12-10T14:49:47;30.20;;;19.77;;
21564;SDS011;10943;48.738;9.320;2022-12-10T14:52:30;30.85;;;20.60;;
21564;SDS011;10943;48.738;9.320;2022-12-10T14:55:11;31.33;;;19.80;;
21564;SDS011;10943;48.738;9.320;2022-12-10T14:57:42;33.70;;;21.38;;
21564;SDS011;10943;48.738;9.320;2022-12-10T15:00:28;29.27;;;19.70;;
21564;SDS011;10943;48.738;9.320;2022-12-10T15:03:00;32.88;;;21.10;;
21564;SDS011;10943;48.738;9.320;2022-12-10T15:05:36;34.88;;;21.85;;
21564;SDS011;10943;48.738;9.320;2022-12-10T15:08:05;33.40;;;22.25;;
21564;SDS011;10943;48.738;9.320;2022-12-10T15:10:43;31.85;;;20.67;;
21564;SDS011;10943;48.738;9.320;2022-12-10T15:15:56;37.17;;;22.13;;
21564;SDS011;10943;48.738;9.320;2022-12-10T15:18:29;29.25;;;19.77;;
21564;SDS011;10943;48.738;9.320;2022-12-10T15:21:09;30.67;;;20.00;;
21564;SDS011;10943;48.738;9.320;2022-12-10T15:23:44;28.50;;;19.27;;
21564;SDS011;10943;48.738;9.320;2022-12-10T15:26:23;32.63;;;20.20;;
21564;SDS011;10943;48.738;9.320;2022-12-10T15:31:55;33.70;;;21.85;;
21564;SDS011;10943;48.738;9.320;2022-12-10T15:34:41;33.38;;;21.50;;
21564;SDS011;10943;48.738;9.320;2022-12-10T15:37:35;32.50;;;20.80;;
21564;SDS011;10943;48.738;9.320;2022-12-10T15:40:21;34.13;;;21.33;;
21564;SDS011;10943;48.738;9.320;2022-12-10T15:42:57;30.83;;;19.75;;
21564;SDS011;10943;48.738;9.320;2022-12-10T15:45:56;31.65;;;20.02;;
21564;SDS011;10943;48.738;9.320;2022-12-10T15:48:28;31.30;;;20.48;;
21564;SDS011;10943;48.738;9.320;2022-12-10T15:50:57;33.38;;;21.27;;
21564;SDS011;10943;48.738;9.320;2022-12-10T15:53:26;34.90;;;22.83;;
21564;SDS011;10943;48.738;9.320;2022-12-10T15:56:02;36.92;;;21.67;;
21564;SDS011;10943;48.738;9.320;2022-12-10T15:58:30;36.97;;;21.55;;
21564;SDS011;10943;48.738;9.320;2022-12-10T16:00:58;36.28;;;22.58;;
21564;SDS011;10943;48.738;9.320;2022-12-10T16:03:28;39.40;;;22.77;;
21564;SDS011;10943;48.738;9.320;2022-12-10T16:05:56;37.85;;;23.95;;
21564;SDS011;10943;48.738;9.320;2022-12-10T16:08:28;38.63;;;23.77;;
21564;SDS011;10943;48.738;9.320;2022-12-10T16:10:57;39.42;;;24.08;;
21564;SDS011;10943;48.738;9.320;2022-12-10T16:13:45;35.15;;;22.23;;
21564;SDS011;10943;48.738;9.320;2022-12-10T16:16:22;35.65;;;22.55;;
21564;SDS011;10943;48.738;9.320;2022-12-10T16:18:51;37.97;;;24.10;;
21564;SDS011;10943;48.738;9.320;2022-12-10T16:21:19;37.00;;;22.42;;
21564;SDS011;10943;48.738;9.320;2022-12-10T16:23:46;37.15;;;22.95;;
21564;SDS011;10943;48.738;9.320;2022-12-10T16:26:16;35.97;;;22.85;;
21564;SDS011;10943;48.738;9.320;2022-12-10T16:28:49;37.58;;;23.05;;
21564;SDS011;10943;48.738;9.320;2022-12-10T16:31:18;37.13;;;23.23;;
21564;SDS011;10943;48.738;9.320;2022-12-10T16:33:48;39.55;;;24.10;;
21564;SDS011;10943;48.738;9.320;2022-12-10T16:36:18;39.97;;;23.42;;
21564;SDS011;10943;48.738;9.320;2022-12-10T16:38:46;36.90;;;22.33;;
21564;SDS011;10943;48.738;9.320;2022-12-10T16:41:18;38.67;;;24.05;;
21564;SDS011;10943;48.738;9.320;2022-12-10T16:43:50;33.75;;;21.75;;
21564;SDS011;10943;48.738;9.320;2022-12-10T16:46:17;37.00;;;23.85;;
21564;SDS011;10943;48.738;9.320;2022-12-10T16:48:45;39.10;;;22.77;;
21564;SDS011;10943;48.738;9.320;2022-12-10T16:51:14;39.38;;;24.67;;
21564;SDS011;10943;48.738;9.320;2022-12-10T16:53:56;41.10;;;24.90;;
21564;SDS011;10943;48.738;9.320;2022-12-10T16:56:24;36.78;;;24.13;;
21564;SDS011;10943;48.738;9.320;2022-12-10T16:58:51;35.15;;;23.05;;
21564;SDS011;10943;48.738;9.320;2022-12-10T17:01:20;37.50;;;23.27;;
21564;SDS011;10943;48.738;9.320;2022-12-10T17:03:57;38.85;;;25.10;;
21564;SDS011;10943;48.738;9.320;2022-12-10T17:06:25;39.35;;;24.13;;
21564;SDS011;10943;48.738;9.320;2022-12-10T17:08:53;36.33;;;22.95;;
21564;SDS011;10943;48.738;9.320;2022-12-10T17:11:22;36.63;;;22.60;;
21564;SDS011;10943;48.738;9.320;2022-12-10T17:16:55;36.35;;;23.15;;